Time;durP1;ratioP1;P1;durP2;ratioP2;P2;SDS_P1;SDS_P2;PMS_P1;PMS_P2;Temp;Humidity;BMP_temperature;BMP_pressure;BME280_temperature;BME280_humidity;BME280_pressure;Samples;Min_cycle;Max_cycle;Signal;HPM_P1;HPM_P2
2022/07/12 00:00:50;;;;;;;;;;;;;;;27.79;37.96;100960.63;105357;1300;62154;-81
2022/07/12 00:03:16;;;;;;;;;;;;;;;27.79;38.08;100962.66;105233;1300;62072;-81
2022/07/12 00:05:41;;;;;;;;;;;;;;;27.79;38.05;100965.72;105229;1300;62088;-81
2022/07/12 00:08:07;;;;;;;;;;;;;;;27.79;38.00;100965.20;105213;1300;62050;-81
2022/07/12 00:10:32;;;;;;;;;;;;;;;27.78;38.24;100967.77;105268;1299;62151;-81
2022/07/12 00:12:58;;;;;;;;;;;;;;;27.78;38.16;100969.98;105192;1301;62248;-81
2022/07/12 00:15:23;;;;;;;;;;;;;;;27.78;38.15;100971.05;105253;1300;75273;-81
2022/07/12 00:17:49;;;;;;;;;;;;;;;27.78;38.08;100973.39;105296;1300;62035;-81
2022/07/12 00:20:14;;;;;;;;;;;;;;;27.78;38.23;100970.91;105241;1300;62220;-81
2022/07/12 00:22:40;;;;;;;;;;;;;;;27.78;38.29;100967.30;105256;1300;62085;-81
2022/07/12 00:25:06;;;;;;;;;;;;;;;27.78;38.02;100962.03;105293;1300;62047;-81
2022/07/12 00:27:31;;;;;;;;;;;;;;;27.77;38.08;100956.30;105204;1300;72927;-81
2022/07/12 00:29:57;;;;;;;;;;;;;;;27.77;38.24;100951.45;105286;1299;62078;-81
2022/07/12 00:32:22;;;;;;;;;;;;;;;27.77;38.14;100950.38;105254;1300;62045;-81
2022/07/12 00:34:47;;;;;;;;;;;;;;;27.76;38.30;100953.27;105364;1300;62081;-81
2022/07/12 00:37:13;;;;;;;;;;;;;;;27.77;38.34;100955.97;105254;1300;62158;-81
2022/07/12 00:39:39;;;;;;;;;;;;;;;27.77;38.32;100958.55;105316;1298;72814;-81
2022/07/12 00:42:04;;;;;;;;;;;;;;;27.76;38.27;100956.91;105233;1300;62149;-81
2022/07/12 00:44:33;;;;;;;;;;;;;;;27.77;38.43;100956.17;105346;1298;62053;-81
2022/07/12 00:46:59;;;;;;;;;;;;;;;27.76;38.35;100955.65;105227;1299;63205;-81
2022/07/12 00:49:25;;;;;;;;;;;;;;;27.76;38.16;100951.86;105236;1299;62095;-81
2022/07/12 00:51:50;;;;;;;;;;;;;;;27.76;38.20;100954.58;105217;1300;62207;-81
2022/07/12 00:54:16;;;;;;;;;;;;;;;27.75;38.22;100955.35;105342;1300;62039;-81
2022/07/12 00:56:42;;;;;;;;;;;;;;;27.75;38.55;100955.90;105319;1300;62065;-81
2022/07/12 00:59:08;;;;;;;;;;;;;;;27.76;38.37;100955.70;105258;1300;62161;-81
2022/07/12 01:01:33;;;;;;;;;;;;;;;27.75;38.49;100953.76;105378;1300;62032;-81
2022/07/12 01:04:00;;;;;;;;;;;;;;;27.75;38.40;100951.39;105310;1300;75587;-81
2022/07/12 01:06:25;;;;;;;;;;;;;;;27.75;38.57;100950.03;105342;1300;62078;-81
2022/07/12 01:08:51;;;;;;;;;;;;;;;27.75;38.40;100949.43;105355;1300;62065;-82
2022/07/12 01:11:16;;;;;;;;;;;;;;;27.75;38.40;100950.92;105239;1300;62065;-82
2022/07/12 01:13:42;;;;;;;;;;;;;;;27.75;38.62;100950.74;105220;1300;62126;-82
2022/07/12 01:16:08;;;;;;;;;;;;;;;27.75;38.65;100950.37;105296;1300;62091;-82
2022/07/12 01:18:33;;;;;;;;;;;;;;;27.74;38.65;100948.04;105298;1300;61967;-81
2022/07/12 01:21:01;;;;;;;;;;;;;;;27.75;38.63;100945.69;105358;1300;62308;-81
2022/07/12 01:23:26;;;;;;;;;;;;;;;27.74;38.55;100943.41;105230;1300;73893;-81
2022/07/12 01:25:52;;;;;;;;;;;;;;;27.74;38.42;100938.20;105242;1300;62067;-81
2022/07/12 01:28:17;;;;;;;;;;;;;;;27.74;38.52;100935.42;105346;1300;62062;-81
2022/07/12 01:30:43;;;;;;;;;;;;;;;27.74;38.51;100936.91;105272;1300;60896;-81
2022/07/12 01:33:09;;;;;;;;;;;;;;;27.73;38.62;100940.02;105370;1300;62081;-81
2022/07/12 01:35:36;;;;;;;;;;;;;;;27.73;38.79;100940.55;105335;1299;72821;-81
2022/07/12 01:38:01;;;;;;;;;;;;;;;27.74;38.67;100944.85;105246;1300;75300;-81
2022/07/12 01:40:27;;;;;;;;;;;;;;;27.73;38.74;100944.63;105383;1300;62514;-81
2022/07/12 01:42:53;;;;;;;;;;;;;;;27.73;38.69;100945.65;105323;1300;62247;-81
2022/07/12 01:45:19;;;;;;;;;;;;;;;27.73;38.63;100948.05;105330;1300;60692;-81
2022/07/12 01:47:44;;;;;;;;;;;;;;;27.73;38.74;100946.59;105320;1298;62072;-81
2022/07/12 01:50:11;;;;;;;;;;;;;;;27.73;38.63;100942.42;105289;1300;62213;-81
2022/07/12 01:52:38;;;;;;;;;;;;;;;27.73;38.84;100946.97;105305;1300;62235;-81
2022/07/12 01:55:04;;;;;;;;;;;;;;;27.73;38.59;100950.95;105255;1300;62792;-81
2022/07/12 01:57:29;;;;;;;;;;;;;;;27.72;38.80;100955.66;105335;1300;62023;-81
2022/07/12 01:59:55;;;;;;;;;;;;;;;27.73;38.63;100958.56;105224;1299;62072;-81
2022/07/12 02:02:20;;;;;;;;;;;;;;;27.72;38.87;100962.02;105348;1300;63279;-81
2022/07/12 02:04:46;;;;;;;;;;;;;;;27.72;38.46;100962.04;105241;1300;62078;-81
2022/07/12 02:07:11;;;;;;;;;;;;;;;27.72;38.73;100961.64;105158;1300;61952;-81
2022/07/12 02:09:37;;;;;;;;;;;;;;;27.72;38.82;100966.91;105319;1300;62061;-81
2022/07/12 02:12:02;;;;;;;;;;;;;;;27.72;38.67;100966.02;105222;1300;62028;-81
2022/07/12 02:14:28;;;;;;;;;;;;;;;27.72;38.59;100970.21;105230;1300;62189;-81
2022/07/12 02:16:54;;;;;;;;;;;;;;;27.72;39.12;100973.11;105316;1300;62047;-81
2022/07/12 02:19:21;;;;;;;;;;;;;;;27.72;38.82;100974.20;105270;1300;62075;-81
2022/07/12 02:21:46;;;;;;;;;;;;;;;27.71;39.08;100979.11;105223;1300;73317;-81
2022/07/12 02:24:12;;;;;;;;;;;;;;;27.72;38.95;100982.00;105359;1299;62206;-81
2022/07/12 02:26:37;;;;;;;;;;;;;;;27.71;38.95;100984.70;105225;1297;62082;-81
2022/07/12 02:29:03;;;;;;;;;;;;;;;27.71;38.88;100987.28;105204;1300;63031;-81
2022/07/12 02:31:28;;;;;;;;;;;;;;;27.71;38.61;100988.54;105271;1300;62109;-81
2022/07/12 02:33:54;;;;;;;;;;;;;;;27.71;38.79;100988.91;105017;1300;72932;-81
2022/07/12 02:36:19;;;;;;;;;;;;;;;27.71;38.82;100989.27;105304;1299;62085;-81
2022/07/12 02:38:45;;;;;;;;;;;;;;;27.70;38.85;100984.98;105342;1300;62127;-81
2022/07/12 02:41:10;;;;;;;;;;;;;;;27.70;38.86;100986.08;105247;1300;62044;-81
2022/07/12 02:43:36;;;;;;;;;;;;;;;27.70;39.00;100991.31;105291;1300;62209;-81
2022/07/12 02:46:05;;;;;;;;;;;;;;;27.70;38.86;100993.66;105312;1300;62296;-81
2022/07/12 02:48:31;;;;;;;;;;;;;;;27.70;38.98;100994.39;105288;1300;76640;-81
2022/07/12 02:50:56;;;;;;;;;;;;;;;27.70;38.92;100992.95;105361;1300;62079;-81
2022/07/12 02:53:22;;;;;;;;;;;;;;;27.70;38.85;100999.70;105320;1300;62904;-81
2022/07/12 02:55:47;;;;;;;;;;;;;;;27.70;38.70;101002.23;105250;1300;62071;-82
2022/07/12 02:58:13;;;;;;;;;;;;;;;27.70;38.89;101007.48;105289;1300;63031;-82
2022/07/12 03:00:38;;;;;;;;;;;;;;;27.70;39.03;101012.15;105220;1300;76801;-81
2022/07/12 03:03:06;;;;;;;;;;;;;;;27.70;39.06;101012.55;105207;1300;62033;-81
2022/07/12 03:05:32;;;;;;;;;;;;;;;27.70;38.88;101015.80;104964;1300;62196;-82
2022/07/12 03:07:57;;;;;;;;;;;;;;;27.70;38.69;101019.20;105044;1299;63337;-82
2022/07/12 03:10:23;;;;;;;;;;;;;;;27.70;38.88;101020.83;105188;1299;62024;-82
2022/07/12 03:12:49;;;;;;;;;;;;;;;27.70;38.78;101019.34;105165;1300;62119;-82
2022/07/12 03:15:14;;;;;;;;;;;;;;;27.70;39.02;101019.21;105261;1299;62055;-82
2022/07/12 03:17:40;;;;;;;;;;;;;;;27.70;38.75;101017.55;105196;1300;62062;-82
2022/07/12 03:20:07;;;;;;;;;;;;;;;27.71;38.80;101020.77;105199;1299;62176;-82
2022/07/12 03:22:33;;;;;;;;;;;;;;;27.70;38.93;101020.09;105097;1303;76337;-82
2022/07/12 03:24:58;;;;;;;;;;;;;;;27.70;38.76;101022.63;104868;1303;62219;-81
2022/07/12 03:27:25;;;;;;;;;;;;;;;27.70;38.85;101022.42;105074;1303;60873;-81
2022/07/12 03:29:50;;;;;;;;;;;;;;;27.70;38.82;101025.89;104969;1303;62298;-81
2022/07/12 03:32:16;;;;;;;;;;;;;;;27.70;38.79;101028.23;104960;1303;62098;-82
2022/07/12 03:34:41;;;;;;;;;;;;;;;27.70;38.78;101024.97;105159;1303;62059;-82
2022/07/12 03:37:07;;;;;;;;;;;;;;;27.70;38.75;101027.86;104912;1303;62074;-82
2022/07/12 03:39:32;;;;;;;;;;;;;;;27.70;38.85;101030.02;105064;1303;62192;-82
2022/07/12 03:41:58;;;;;;;;;;;;;;;27.70;38.70;101025.54;104993;1302;62054;-82
2022/07/12 03:44:23;;;;;;;;;;;;;;;27.70;38.62;101026.65;104963;1303;62182;-82
2022/07/12 03:46:49;;;;;;;;;;;;;;;27.70;38.61;101025.02;104897;1303;62113;-82
2022/07/12 03:49:14;;;;;;;;;;;;;;;27.69;38.91;101022.88;105112;1303;61995;-82
2022/07/12 03:51:40;;;;;;;;;;;;;;;27.69;38.74;101026.52;104989;1303;62092;-82
2022/07/12 03:54:07;;;;;;;;;;;;;;;27.69;38.67;101027.79;105102;1298;62296;-82
2022/07/12 03:59:18;;;;;;;;;;;;;;;27.69;38.46;101028.90;105157;1299;63284;-81
2022/07/12 04:01:43;;;;;;;;;;;;;;;27.68;38.50;101025.14;105193;1299;62040;-81
2022/07/12 04:04:09;;;;;;;;;;;;;;;27.68;38.50;101030.73;105203;1302;62087;-81
2022/07/12 04:06:34;;;;;;;;;;;;;;;27.68;38.44;101031.27;105160;1300;62120;-81
2022/07/12 04:09:00;;;;;;;;;;;;;;;27.68;38.52;101035.24;105189;1300;62155;-81
2022/07/12 04:11:25;;;;;;;;;;;;;;;27.68;38.47;101039.48;105246;1299;62167;-81
2022/07/12 04:13:51;;;;;;;;;;;;;;;27.68;38.25;101037.52;105252;1299;62088;-81
2022/07/12 04:16:17;;;;;;;;;;;;;;;27.67;38.37;101034.52;105154;1299;62065;-81
2022/07/12 04:18:42;;;;;;;;;;;;;;;27.66;38.25;101041.27;105113;1300;61935;-81
2022/07/12 04:21:08;;;;;;;;;;;;;;;27.65;38.13;101043.52;105158;1300;62168;-81
2022/07/12 04:23:33;;;;;;;;;;;;;;;27.64;38.12;101048.41;105162;1300;62175;-81
2022/07/12 04:26:00;;;;;;;;;;;;;;;27.63;37.95;101050.25;105131;1302;62063;-81
2022/07/12 04:28:25;;;;;;;;;;;;;;;27.59;37.93;101054.27;105080;1302;62124;-81
2022/07/12 04:30:51;;;;;;;;;;;;;;;27.54;37.92;101057.21;105067;1302;62190;-81
2022/07/12 04:33:16;;;;;;;;;;;;;;;27.52;37.63;101057.61;105081;1302;62095;-81
2022/07/12 04:35:41;;;;;;;;;;;;;;;27.52;37.80;101056.89;105215;1302;62061;-81
2022/07/12 04:38:07;;;;;;;;;;;;;;;27.52;37.80;101058.70;105164;1301;62083;-81
2022/07/12 04:40:32;;;;;;;;;;;;;;;27.52;37.63;101060.46;105139;1302;62078;-81
2022/07/12 04:42:58;;;;;;;;;;;;;;;27.53;37.68;101063.33;105085;1302;62342;-81
2022/07/12 04:45:23;;;;;;;;;;;;;;;27.51;37.59;101058.25;105118;1302;62081;-81
2022/07/12 04:47:49;;;;;;;;;;;;;;;27.51;37.25;101061.86;105128;1302;62037;-81
2022/07/12 04:50:14;;;;;;;;;;;;;;;27.52;37.11;101059.05;105064;1302;62044;-81
2022/07/12 04:52:40;;;;;;;;;;;;;;;27.53;37.26;101062.59;105219;1301;62832;-81
2022/07/12 04:55:06;;;;;;;;;;;;;;;27.53;37.04;101066.35;105088;1302;62033;-81
2022/07/12 04:57:31;;;;;;;;;;;;;;;27.53;36.89;101071.23;105168;1302;62100;-81
2022/07/12 04:59:56;;;;;;;;;;;;;;;27.55;37.03;101064.77;105214;1302;62103;-81
2022/07/12 05:02:22;;;;;;;;;;;;;;;27.55;36.90;101066.36;105057;1302;62060;-82
2022/07/12 05:04:47;;;;;;;;;;;;;;;27.55;36.91;101068.68;105174;1301;62084;-81
2022/07/12 05:07:13;;;;;;;;;;;;;;;27.55;36.64;101066.03;105203;1302;62235;-81
2022/07/12 05:09:38;;;;;;;;;;;;;;;27.56;36.44;101073.88;105185;1302;62081;-81
2022/07/12 05:12:04;;;;;;;;;;;;;;;27.56;36.65;101073.98;105207;1302;62081;-81
2022/07/12 05:14:29;;;;;;;;;;;;;;;27.58;36.51;101076.58;105127;1302;61974;-81
2022/07/12 05:16:55;;;;;;;;;;;;;;;27.59;36.62;101083.52;105196;1302;62159;-81
2022/07/12 05:19:21;;;;;;;;;;;;;;;27.59;36.26;101078.08;104961;1302;62092;-81
2022/07/12 05:21:47;;;;;;;;;;;;;;;27.58;36.18;101081.92;105132;1301;62106;-81
2022/07/12 05:24:12;;;;;;;;;;;;;;;27.56;36.12;101081.07;105144;1302;62075;-81
2022/07/12 05:26:39;;;;;;;;;;;;;;;27.57;36.21;101085.19;105028;1301;62057;-81
2022/07/12 05:29:05;;;;;;;;;;;;;;;27.56;35.88;101088.83;105189;1299;72642;-82
2022/07/12 05:31:31;;;;;;;;;;;;;;;27.57;36.16;101089.83;105180;1302;62090;-82
2022/07/12 05:33:56;;;;;;;;;;;;;;;27.57;35.99;101089.46;105187;1300;62088;-81
2022/07/12 05:36:21;;;;;;;;;;;;;;;27.56;35.85;101092.05;105189;1300;62170;-81
2022/07/12 05:38:47;;;;;;;;;;;;;;;27.56;35.74;101090.52;105123;1302;62100;-81
2022/07/12 05:41:12;;;;;;;;;;;;;;;27.55;35.88;101096.02;105218;1300;63299;-81
2022/07/12 05:43:38;;;;;;;;;;;;;;;27.54;35.91;101094.80;105089;1302;62040;-81
2022/07/12 05:46:05;;;;;;;;;;;;;;;27.55;36.09;101095.66;105194;1300;61873;-81
2022/07/12 05:48:30;;;;;;;;;;;;;;;27.56;36.05;101097.91;105222;1299;62159;-81
2022/07/12 05:53:21;;;;;;;;;;;;;;;27.56;35.77;101096.66;105206;1300;62081;-81
2022/07/12 05:53:42;;;;;;;;;;;;;;;27.56;35.58;101092.83;105236;1299;75487;-81
2022/07/12 05:56:07;;;;;;;;;;;;;;;27.57;35.54;101097.25;105237;1299;62108;-81
2022/07/12 05:58:33;;;;;;;;;;;;;;;27.56;35.47;101102.22;104984;1300;62181;-81
2022/07/12 06:00:58;;;;;;;;;;;;;;;27.56;35.47;101106.21;105169;1300;60644;-81
2022/07/12 06:03:24;;;;;;;;;;;;;;;27.57;35.20;101105.24;105253;1300;62101;-81
2022/07/12 06:05:49;;;;;;;;;;;;;;;27.58;35.26;101105.12;105208;1299;75542;-81
2022/07/12 06:08:15;;;;;;;;;;;;;;;27.56;35.22;101103.70;105080;1299;62314;-81
2022/07/12 06:10:40;;;;;;;;;;;;;;;27.51;35.06;101104.30;105180;1300;62094;-81
2022/07/12 06:13:06;;;;;;;;;;;;;;;27.48;35.05;101104.60;105160;1300;62237;-81
2022/07/12 06:15:31;;;;;;;;;;;;;;;27.47;34.83;101102.02;105208;1300;62065;-81
2022/07/12 06:17:57;;;;;;;;;;;;;;;27.48;35.05;101105.54;105209;1298;62055;-81
2022/07/12 06:20:23;;;;;;;;;;;;;;;27.49;34.86;101107.73;105210;1302;62108;-81
2022/07/12 06:22:48;;;;;;;;;;;;;;;27.52;34.91;101110.62;105172;1302;62082;-81
2022/07/12 06:25:14;;;;;;;;;;;;;;;27.49;34.86;101109.20;105083;1300;62087;-81
2022/07/12 06:27:39;;;;;;;;;;;;;;;27.46;34.75;101114.54;104284;1298;1110663;-81
2022/07/12 06:30:05;;;;;;;;;;;;;;;27.42;34.62;101112.56;105179;1299;62026;-81
2022/07/12 06:32:31;;;;;;;;;;;;;;;27.43;34.64;101107.58;105044;1299;62011;-81
2022/07/12 06:34:56;;;;;;;;;;;;;;;27.45;34.59;101100.41;105041;1302;62075;-81
2022/07/12 06:37:22;;;;;;;;;;;;;;;27.47;34.59;101100.89;105129;1302;62216;-81
2022/07/12 06:39:48;;;;;;;;;;;;;;;27.49;34.60;101104.86;105093;1300;62712;-81
2022/07/12 06:42:13;;;;;;;;;;;;;;;27.49;34.69;101104.70;105168;1300;62090;-81
2022/07/12 06:44:39;;;;;;;;;;;;;;;27.46;34.48;101101.05;105150;1302;62082;-80
2022/07/12 06:47:04;;;;;;;;;;;;;;;27.42;34.43;101104.79;104953;1302;62197;-81
2022/07/12 06:49:30;;;;;;;;;;;;;;;27.40;34.48;101100.79;105206;1300;62104;-81
2022/07/12 06:51:55;;;;;;;;;;;;;;;27.41;34.26;101107.03;105186;1301;62060;-81
2022/07/12 06:54:20;;;;;;;;;;;;;;;27.36;33.99;101110.77;105291;1299;62107;-81
2022/07/12 06:56:46;;;;;;;;;;;;;;;27.34;33.92;101114.80;105177;1300;62171;-81
2022/07/12 06:59:11;;;;;;;;;;;;;;;27.34;34.05;101112.27;105102;1302;62084;-81
2022/07/12 07:01:37;;;;;;;;;;;;;;;27.35;34.17;101112.66;105152;1302;62187;-81
2022/07/12 07:04:03;;;;;;;;;;;;;;;27.36;34.04;101115.44;105122;1300;62130;-81
2022/07/12 07:06:28;;;;;;;;;;;;;;;27.38;34.08;101113.32;105103;1302;62092;-81
2022/07/12 07:08:54;;;;;;;;;;;;;;;27.39;33.97;101115.94;105121;1301;62457;-81
2022/07/12 07:11:20;;;;;;;;;;;;;;;27.39;34.06;101118.48;104999;1298;62094;-81
2022/07/12 07:13:46;;;;;;;;;;;;;;;27.40;34.14;101116.20;105109;1299;62037;-81
2022/07/12 07:16:11;;;;;;;;;;;;;;;27.41;33.84;101113.58;105125;1302;61943;-81
2022/07/12 07:18:37;;;;;;;;;;;;;;;27.42;33.99;101109.48;105084;1302;62148;-81
2022/07/12 07:21:03;;;;;;;;;;;;;;;27.43;34.15;101116.25;104898;1302;62079;-81
2022/07/12 07:23:28;;;;;;;;;;;;;;;27.45;33.88;101115.08;105131;1300;62022;-81
2022/07/12 07:25:54;;;;;;;;;;;;;;;27.45;34.09;101108.35;104886;1302;62058;-81
2022/07/12 07:28:19;;;;;;;;;;;;;;;27.44;33.70;101106.83;105005;1302;62094;-81
2022/07/12 07:30:54;;;;;;;;;;;;;;;27.44;34.06;101111.85;104811;1302;62180;-81
2022/07/12 07:33:24;;;;;;;;;;;;;;;27.39;33.66;101113.92;105078;1299;61944;-81
2022/07/12 07:35:49;;;;;;;;;;;;;;;27.36;33.44;101115.16;105084;1302;72776;-81
2022/07/12 07:38:16;;;;;;;;;;;;;;;27.24;33.29;101114.04;105162;1299;62097;-81
2022/07/12 07:40:41;;;;;;;;;;;;;;;27.15;33.13;101114.04;105127;1300;62068;-81
2022/07/12 07:43:06;;;;;;;;;;;;;;;27.14;33.57;101113.38;105020;1299;62097;-80
2022/07/12 07:45:32;;;;;;;;;;;;;;;27.16;33.23;101114.11;104947;1300;60092;-81
2022/07/12 07:47:57;;;;;;;;;;;;;;;27.17;33.43;101116.34;105137;1299;62040;-81
2022/07/12 07:50:23;;;;;;;;;;;;;;;27.18;33.32;101116.18;105051;1300;62086;-80
2022/07/12 07:52:49;;;;;;;;;;;;;;;27.22;33.34;101118.58;105123;1300;62059;-80
2022/07/12 07:55:15;;;;;;;;;;;;;;;27.21;33.24;101122.05;105168;1298;62215;-80
2022/07/12 07:57:41;;;;;;;;;;;;;;;27.23;33.40;101122.65;104886;1300;62071;-81
2022/07/12 08:00:06;;;;;;;;;;;;;;;27.26;33.36;101120.51;104931;1301;62157;-81
2022/07/12 08:02:32;;;;;;;;;;;;;;;27.29;33.03;101119.24;105068;1302;64685;-81
2022/07/12 08:04:57;;;;;;;;;;;;;;;27.27;32.98;101116.86;105142;1299;62027;-81
2022/07/12 08:07:23;;;;;;;;;;;;;;;27.25;32.93;101109.41;104958;1302;62085;-80
2022/07/12 08:09:48;;;;;;;;;;;;;;;27.28;33.06;101107.59;105162;1299;62085;-80
2022/07/12 08:12:13;;;;;;;;;;;;;;;27.29;32.78;101109.23;105094;1302;62065;-81
2022/07/12 08:14:39;;;;;;;;;;;;;;;27.30;32.90;101108.30;105187;1299;62088;-80
2022/07/12 08:17:04;;;;;;;;;;;;;;;27.30;33.05;101105.20;105064;1300;62097;-80
2022/07/12 08:19:30;;;;;;;;;;;;;;;27.32;32.72;101102.30;105104;1300;62142;-80
2022/07/12 08:21:55;;;;;;;;;;;;;;;27.34;32.80;101099.40;105117;1302;60181;-80
2022/07/12 08:24:21;;;;;;;;;;;;;;;27.37;33.19;101098.77;105021;1299;62081;-81
2022/07/12 08:26:46;;;;;;;;;;;;;;;27.39;32.71;101097.27;105060;1299;62769;-81
2022/07/12 08:29:12;;;;;;;;;;;;;;;27.41;32.95;101092.59;105059;1301;62081;-80
2022/07/12 08:31:38;;;;;;;;;;;;;;;27.43;33.01;101091.11;105062;1302;62062;-81
2022/07/12 08:34:03;;;;;;;;;;;;;;;27.46;32.74;101091.85;105108;1302;62640;-81
2022/07/12 08:36:29;;;;;;;;;;;;;;;27.48;32.80;101093.14;104973;1301;62208;-81
2022/07/12 08:38:55;;;;;;;;;;;;;;;27.49;32.69;101091.02;104852;1302;62081;-80
2022/07/12 08:41:20;;;;;;;;;;;;;;;27.50;32.77;101094.30;104989;1302;62072;-80
2022/07/12 08:43:46;;;;;;;;;;;;;;;27.52;32.65;101093.23;104931;1302;62210;-80
2022/07/12 08:46:12;;;;;;;;;;;;;;;27.54;32.84;101094.86;104923;1302;62226;-81
2022/07/12 08:48:37;;;;;;;;;;;;;;;27.55;32.92;101092.06;104956;1302;62121;-81
2022/07/12 08:51:04;;;;;;;;;;;;;;;27.56;32.86;101092.26;105061;1302;62037;-80
2022/07/12 08:53:30;;;;;;;;;;;;;;;27.58;32.74;101087.43;105044;1302;62098;-81
2022/07/12 08:55:55;;;;;;;;;;;;;;;27.58;32.65;101083.77;105034;1302;62091;-81
2022/07/12 08:58:20;;;;;;;;;;;;;;;27.59;32.82;101081.92;105173;1300;62091;-80
2022/07/12 09:00:46;;;;;;;;;;;;;;;27.59;32.61;101076.64;105025;1302;62033;-82
2022/07/12 09:03:13;;;;;;;;;;;;;;;27.57;32.66;101075.73;105171;1301;62056;-81
2022/07/12 09:05:39;;;;;;;;;;;;;;;27.52;32.38;101065.86;105032;1302;62635;-81
2022/07/12 09:08:05;;;;;;;;;;;;;;;27.50;32.38;101066.81;105090;1302;62058;-81
2022/07/12 09:10:35;;;;;;;;;;;;;;;27.49;32.49;101066.19;105185;1299;62014;-80
2022/07/12 09:13:01;;;;;;;;;;;;;;;27.50;32.67;101067.37;105156;1301;62080;-81
2022/07/12 09:15:27;;;;;;;;;;;;;;;27.52;32.31;101068.12;105116;1300;62088;-81
2022/07/12 09:18:00;;;;;;;;;;;;;;;27.51;32.64;101066.38;105131;1300;61949;-80
2022/07/12 09:20:36;;;;;;;;;;;;;;;27.50;32.24;101063.42;105062;1299;76390;-81
2022/07/12 09:23:06;;;;;;;;;;;;;;;27.51;32.33;101062.98;105105;1301;62123;-80
2022/07/12 09:25:32;;;;;;;;;;;;;;;27.50;32.39;101064.33;105193;1299;61960;-81
2022/07/12 09:27:58;;;;;;;;;;;;;;;27.50;32.31;101066.48;105062;1298;62162;-81
2022/07/12 09:30:24;;;;;;;;;;;;;;;27.50;32.40;101071.52;104973;1301;62176;-81
2022/07/12 09:38:22;;;;;;;;;;;;;;;27.53;32.27;101064.41;105079;1299;73027;-81
2022/07/12 09:40:48;;;;;;;;;;;;;;;27.53;32.32;101064.17;105051;1299;62076;-81
2022/07/12 09:43:14;;;;;;;;;;;;;;;27.54;32.22;101063.38;104946;1300;62092;-81
2022/07/12 09:45:43;;;;;;;;;;;;;;;27.54;32.18;101065.35;104974;1300;62085;-81
2022/07/12 09:48:10;;;;;;;;;;;;;;;27.55;32.21;101063.46;105016;1300;72350;-81
2022/07/12 09:50:36;;;;;;;;;;;;;;;27.56;32.28;101062.44;105026;1300;76432;-81
2022/07/12 09:53:02;;;;;;;;;;;;;;;27.58;32.26;101061.03;105152;1299;62222;-80
2022/07/12 09:55:28;;;;;;;;;;;;;;;27.58;32.13;101056.84;105216;1299;62075;-81
2022/07/12 09:57:54;;;;;;;;;;;;;;;27.59;32.24;101055.30;105082;1302;62053;-81
2022/07/12 10:00:20;;;;;;;;;;;;;;;27.59;32.27;101056.38;104894;1301;62119;-81
2022/07/12 10:02:45;;;;;;;;;;;;;;;27.55;32.11;101051.13;104927;1300;62042;-81
2022/07/12 10:05:11;;;;;;;;;;;;;;;27.55;32.32;101048.78;105061;1300;62155;-81
2022/07/12 10:07:37;;;;;;;;;;;;;;;27.54;32.12;101044.55;105008;1300;62189;-81
2022/07/12 10:10:02;;;;;;;;;;;;;;;27.54;32.14;101042.03;105014;1299;61978;-81
2022/07/12 10:12:28;;;;;;;;;;;;;;;27.54;32.02;101039.86;104895;1301;62082;-82
2022/07/12 10:14:55;;;;;;;;;;;;;;;27.54;32.00;101036.42;104874;1302;62100;-80
2022/07/12 10:17:24;;;;;;;;;;;;;;;27.52;32.21;101034.33;104929;1301;62156;-80
2022/07/12 10:19:49;;;;;;;;;;;;;;;27.52;31.99;101030.88;104924;1302;75021;-80
2022/07/12 10:22:22;;;;;;;;;;;;;;;27.54;32.06;101030.50;105049;1300;62241;-80
2022/07/12 10:24:52;;;;;;;;;;;;;;;27.54;32.11;101031.69;104996;1300;62054;-81
2022/07/12 10:27:18;;;;;;;;;;;;;;;27.56;31.95;101030.65;105089;1299;62088;-80
2022/07/12 10:29:44;;;;;;;;;;;;;;;27.51;31.50;101022.50;105030;1302;62002;-81
2022/07/12 10:32:28;;;;;;;;;;;;;;;27.41;31.41;101024.88;105026;1302;62114;-81
2022/07/12 10:35:07;;;;;;;;;;;;;;;27.34;31.39;101020.42;105048;1302;61944;-80
2022/07/12 10:37:33;;;;;;;;;;;;;;;27.31;31.55;101020.67;104894;1302;62489;-81
2022/07/12 10:40:31;;;;;;;;;;;;;;;27.31;31.36;101012.57;105120;1300;62081;-81
2022/07/12 10:43:05;;;;;;;;;;;;;;;27.33;31.38;101015.69;104811;1305;75615;-83
2022/07/12 10:45:32;;;;;;;;;;;;;;;27.34;31.31;101020.41;104573;1306;62078;-83
2022/07/12 10:47:58;;;;;;;;;;;;;;;27.34;31.29;101018.13;104672;1305;61963;-83
2022/07/12 10:50:43;;;;;;;;;;;;;;;27.34;31.30;101019.70;104676;1306;62164;-83
2022/07/12 10:53:20;;;;;;;;;;;;;;;27.34;31.07;101019.34;104799;1305;76245;-83
2022/07/12 10:56:05;;;;;;;;;;;;;;;27.34;31.14;101013.16;104806;1306;62060;-83
2022/07/12 10:58:31;;;;;;;;;;;;;;;27.36;30.96;101015.30;104850;1306;61975;-83
2022/07/12 11:00:57;;;;;;;;;;;;;;;27.37;31.10;101017.30;104642;1306;62062;-83
2022/07/12 11:03:23;;;;;;;;;;;;;;;27.32;30.75;101014.31;104638;1306;62172;-83
2022/07/12 11:05:49;;;;;;;;;;;;;;;27.28;30.78;101009.44;104799;1306;62061;-83
2022/07/12 11:08:15;;;;;;;;;;;;;;;27.30;30.85;101009.98;104622;1306;62168;-81
2022/07/12 11:10:53;;;;;;;;;;;;;;;27.29;30.97;101009.52;104689;1306;62107;-80
2022/07/12 11:13:19;;;;;;;;;;;;;;;27.29;31.01;101006.13;104596;1305;75594;-80
2022/07/12 11:16:00;;;;;;;;;;;;;;;27.25;30.53;101007.33;104837;1305;61982;-80
2022/07/12 11:18:33;;;;;;;;;;;;;;;27.24;30.71;101008.13;104749;1300;62733;-80
2022/07/12 11:20:59;;;;;;;;;;;;;;;27.24;30.58;101006.37;105235;1298;73779;-81
2022/07/12 11:23:26;;;;;;;;;;;;;;;27.25;30.64;101003.75;105188;1299;62076;-82
2022/07/12 11:25:56;;;;;;;;;;;;;;;27.27;30.54;101000.85;105168;1300;62807;-83
2022/07/12 11:28:23;;;;;;;;;;;;;;;27.29;30.50;101003.73;105119;1299;62026;-83
2022/07/12 11:30:49;;;;;;;;;;;;;;;27.32;30.47;101002.73;104939;1299;74313;-83
2022/07/12 11:33:14;;;;;;;;;;;;;;;27.35;30.46;101004.09;104985;1300;61870;-83
2022/07/12 11:35:40;;;;;;;;;;;;;;;27.38;30.61;101000.52;104909;1302;62778;-81
2022/07/12 11:38:05;;;;;;;;;;;;;;;27.41;30.66;100997.73;104781;1302;62092;-81
2022/07/12 11:40:31;;;;;;;;;;;;;;;27.44;30.74;100998.93;105113;1301;62057;-80
2022/07/12 11:43:00;;;;;;;;;;;;;;;27.46;30.59;100990.98;105169;1302;63111;-80
2022/07/12 11:45:26;;;;;;;;;;;;;;;27.46;30.37;100985.35;105113;1302;76796;-81
2022/07/12 11:47:52;;;;;;;;;;;;;;;27.46;30.32;100985.21;105191;1302;62185;-81
2022/07/12 11:50:18;;;;;;;;;;;;;;;27.46;30.35;100989.73;105186;1302;62071;-81
2022/07/12 11:52:44;;;;;;;;;;;;;;;27.48;30.48;100985.88;105092;1300;62094;-81
2022/07/12 11:55:09;;;;;;;;;;;;;;;27.50;30.38;100989.11;105169;1302;62111;-81
2022/07/12 11:57:35;;;;;;;;;;;;;;;27.52;30.41;100991.09;105124;1302;62168;-81
2022/07/12 12:00:19;;;;;;;;;;;;;;;27.53;30.60;100987.04;105133;1301;62073;-80
2022/07/12 12:02:44;;;;;;;;;;;;;;;27.53;30.51;100983.21;105057;1301;61979;-81
2022/07/12 12:05:10;;;;;;;;;;;;;;;27.53;30.34;100987.38;105173;1301;62163;-81
2022/07/12 12:07:35;;;;;;;;;;;;;;;27.55;30.47;100991.93;105120;1302;62798;-81
2022/07/12 12:10:02;;;;;;;;;;;;;;;27.55;30.40;100989.30;104884;1300;62033;-81
2022/07/12 12:12:28;;;;;;;;;;;;;;;27.57;30.55;100984.22;105136;1302;62229;-81
2022/07/12 12:14:53;;;;;;;;;;;;;;;27.58;30.64;100988.30;105139;1300;61973;-81
2022/07/12 12:17:19;;;;;;;;;;;;;;;27.60;30.47;100983.48;105156;1302;62114;-81
2022/07/12 12:19:44;;;;;;;;;;;;;;;27.62;30.59;100977.86;105125;1302;62084;-80
2022/07/12 12:22:32;;;;;;;;;;;;;;;27.63;30.65;100974.69;105191;1302;62152;-80
2022/07/12 12:24:58;;;;;;;;;;;;;;;27.64;30.91;100972.61;105010;1301;61969;-81
2022/07/12 12:27:24;;;;;;;;;;;;;;;27.65;30.68;100974.80;104999;1301;62349;-80
2022/07/12 12:29:51;;;;;;;;;;;;;;;27.67;30.80;100973.23;105110;1302;62065;-80